Time;durP1;ratioP1;P1;durP2;ratioP2;P2;SDS_P1;SDS_P2;PMS_P1;PMS_P2;Temp;Humidity;BMP_temperature;BMP_pressure;BME280_temperature;BME280_humidity;BME280_pressure;Samples;Min_cycle;Max_cycle;Signal;HPM_P1;HPM_P2
2022/03/09 00:01:37;;;;;;;24.70;16.17;;;0.60;1.00;;;;;;4979325;28;20252;-63
2022/03/09 00:04:05;;;;;;;23.87;16.33;;;0.60;1.00;;;;;;4978694;28;20289;-63
2022/03/09 00:06:32;;;;;;;25.13;16.30;;;0.60;1.00;;;;;;4980795;28;20196;-63
2022/03/09 00:09:02;;;;;;;27.93;16.13;;;0.40;1.00;;;;;;4994957;28;20293;-63
2022/03/09 00:11:31;;;;;;;24.80;14.27;;;0.40;1.00;;;;;;4983764;28;20216;-62
2022/03/09 00:14:02;;;;;;;23.07;14.13;;;0.40;1.00;;;;;;4977583;28;20626;-63
2022/03/09 00:16:31;;;;;;;19.27;12.70;;;0.50;1.00;;;;;;4993938;28;20682;-63
2022/03/09 00:19:00;;;;;;;21.27;13.13;;;0.40;1.00;;;;;;4977452;28;20741;-62
2022/03/09 00:21:28;;;;;;;17.90;11.50;;;0.30;1.00;;;;;;4977022;28;20237;-62
2022/03/09 00:23:55;;;;;;;17.00;11.63;;;0.20;1.00;;;;;;4977069;28;20284;-64
2022/03/09 00:26:21;;;;;;;15.80;11.23;;;0.30;1.00;;;;;;4985199;28;20244;-62
2022/03/09 00:28:49;;;;;;;17.77;11.40;;;0.20;1.00;;;;;;4993793;28;20201;-63
2022/03/09 00:31:18;;;;;;;19.50;11.57;;;0.20;1.00;;;;;;4994497;28;20653;-62
2022/03/09 00:33:47;;;;;;;17.47;10.50;;;0.70;1.00;;;;;;4984774;28;20689;-63
2022/03/09 00:36:16;;;;;;;19.77;10.70;;;0.10;1.00;;;;;;4968194;28;20205;-62
2022/03/09 00:38:43;;;;;;;17.63;11.57;;;0.20;1.00;;;;;;4979179;28;20256;-62
2022/03/09 00:41:10;;;;;;;16.40;10.33;;;0.10;1.00;;;;;;4993049;28;20325;-63
2022/03/09 00:43:37;;;;;;;14.93;10.57;;;0.00;1.00;;;;;;4990786;28;20225;-63
2022/03/09 00:46:04;;;;;;;18.53;10.77;;;0.00;1.00;;;;;;4993345;28;20198;-62
2022/03/09 00:48:35;;;;;;;16.37;10.03;;;-0.10;1.00;;;;;;4983196;28;20253;-63
2022/03/09 00:51:02;;;;;;;14.97;10.40;;;-0.10;1.00;;;;;;4991647;28;20221;-63
2022/03/09 00:53:29;;;;;;;15.50;10.27;;;-0.20;1.00;;;;;;4975190;28;20745;-63
2022/03/09 00:55:56;;;;;;;14.73;10.30;;;-0.20;1.00;;;;;;4985945;28;20597;-63
2022/03/09 00:58:23;;;;;;;17.53;10.37;;;-0.20;1.00;;;;;;4982368;28;20305;-63
2022/03/09 01:00:50;;;;;;;19.07;11.13;;;-0.30;1.00;;;;;;4983905;28;20201;-63
2022/03/09 01:03:17;;;;;;;16.43;10.97;;;-0.30;1.00;;;;;;4981568;28;20230;-63
2022/03/09 01:05:49;;;;;;;16.77;10.50;;;-0.30;1.00;;;;;;4994168;28;20257;-62
2022/03/09 01:08:16;;;;;;;19.30;11.20;;;-0.30;1.00;;;;;;4978501;28;20767;-63
2022/03/09 01:10:45;;;;;;;15.60;10.37;;;-0.20;1.00;;;;;;4993466;28;20288;-62
2022/03/09 01:13:12;;;;;;;19.17;11.03;;;-0.20;1.00;;;;;;4983825;28;20229;-63
2022/03/09 01:15:39;;;;;;;13.70;10.10;;;-0.20;1.00;;;;;;4992586;28;20221;-62
2022/03/09 01:18:06;;;;;;;13.90;9.97;;;-0.20;1.00;;;;;;4977545;28;20202;-63
2022/03/09 01:20:35;;;;;;;18.13;10.00;;;-0.30;1.00;;;;;;4983116;28;20869;-63
2022/03/09 01:23:02;;;;;;;18.47;10.53;;;-0.30;1.00;;;;;;4987268;28;20249;-63
2022/03/09 01:25:31;;;;;;;17.33;10.57;;;-0.40;1.00;;;;;;4986518;28;20700;-63
2022/03/09 01:28:01;;;;;;;16.10;9.67;;;-0.40;1.00;;;;;;4987914;28;20213;-63
2022/03/09 01:30:28;;;;;;;16.40;10.77;;;-0.40;1.00;;;;;;4987220;28;20233;-63
2022/03/09 01:32:55;;;;;;;14.90;9.73;;;-0.40;1.00;;;;;;4987842;28;20279;-62
2022/03/09 01:35:22;;;;;;;15.70;10.10;;;-0.40;1.00;;;;;;4981414;28;20257;-62
2022/03/09 01:37:49;;;;;;;15.07;10.33;;;-0.40;1.00;;;;;;4981478;28;20247;-62
2022/03/09 01:40:22;;;;;;;13.40;9.27;;;-0.50;1.00;;;;;;4969209;28;20718;-62
2022/03/09 01:42:50;;;;;;;14.50;9.70;;;-0.40;1.00;;;;;;5011127;28;20657;-62
2022/03/09 01:45:20;;;;;;;15.17;10.37;;;-0.50;1.00;;;;;;4982064;28;20555;-63
2022/03/09 01:47:48;;;;;;;14.90;10.03;;;-0.40;1.00;;;;;;4991465;28;20207;-63
2022/03/09 01:50:15;;;;;;;16.13;10.90;;;-0.60;1.00;;;;;;4980177;28;20273;-63
2022/03/09 01:52:44;;;;;;;15.00;9.90;;;-0.60;1.00;;;;;;4995783;28;20233;-63
2022/03/09 01:55:14;;;;;;;15.93;10.00;;;-0.70;1.00;;;;;;4981978;28;20197;-63
2022/03/09 01:57:41;;;;;;;16.53;9.97;;;-0.70;1.00;;;;;;4980030;28;20198;-63
2022/03/09 02:00:10;;;;;;;15.80;11.17;;;-0.70;1.00;;;;;;4984426;28;20202;-62
2022/03/09 02:02:37;;;;;;;14.40;10.60;;;-0.80;1.00;;;;;;4982852;28;20304;-63
2022/03/09 02:05:05;;;;;;;15.27;10.90;;;-0.80;1.00;;;;;;4985482;28;20488;-62
2022/03/09 02:10:22;;;;;;;14.80;10.07;;;-0.80;10.80;;;;;;4994454;28;20643;-62
2022/03/09 02:12:49;;;;;;;16.33;9.80;;;-0.80;1.00;;;;;;4992412;28;20321;-63
2022/03/09 02:15:18;;;;;;;13.00;9.77;;;-0.80;1.00;;;;;;4995662;28;20221;-63
2022/03/09 02:17:45;;;;;;;13.10;9.30;;;-0.80;1.00;;;;;;4993416;28;20206;-62
2022/03/09 02:20:15;;;;;;;15.47;10.47;;;-0.90;1.00;;;;;;4982717;28;20197;-63
2022/03/09 02:22:43;;;;;;;13.57;9.70;;;-0.90;11.70;;;;;;4980575;28;20221;-62
2022/03/09 02:25:15;;;;;;;17.90;10.40;;;-1.00;16.00;;;;;;4981317;28;20205;-64
2022/03/09 02:27:43;;;;;;;16.53;9.60;;;-1.00;48.00;;;;;;4986463;28;20202;-62
2022/03/09 02:30:14;;;;;;;15.43;10.67;;;-1.00;27.60;;;;;;4993990;28;20720;-61
2022/03/09 02:32:49;;;;;;;15.30;10.40;;;-1.10;19.60;;;;;;4983968;28;20218;-63
2022/03/09 02:35:18;;;;;;;13.53;9.40;;;-1.10;27.60;;;;;;4986222;28;20295;-62
2022/03/09 02:37:46;;;;;;;15.83;9.47;;;-1.10;24.40;;;;;;4979510;28;20242;-62
2022/03/09 02:40:15;;;;;;;15.87;10.40;;;-1.10;20.40;;;;;;4987639;28;20240;-62
2022/03/09 02:42:42;;;;;;;14.57;10.20;;;-1.20;33.50;;;;;;4985411;28;20271;-63
2022/03/09 02:45:11;;;;;;;15.00;9.83;;;-1.10;26.30;;;;;;4982891;28;20202;-64
2022/03/09 02:47:40;;;;;;;17.37;9.67;;;-1.10;90.00;;;;;;4978833;28;20704;-62
2022/03/09 02:50:10;;;;;;;13.13;9.73;;;-1.10;49.00;;;;;;4978501;28;20190;-62
2022/03/09 02:52:39;;;;;;;15.27;10.57;;;-1.10;96.40;;;;;;4984600;28;20217;-62
2022/03/09 02:55:08;;;;;;;14.70;9.97;;;-1.10;66.70;;;;;;4978391;28;20210;-62
2022/03/09 02:57:37;;;;;;;19.00;11.37;;;-1.20;73.20;;;;;;4994926;28;20263;-62
2022/03/09 03:00:07;;;;;;;18.30;10.30;;;-1.30;80.50;;;;;;4992214;28;20221;-63
2022/03/09 03:02:36;;;;;;;17.37;10.03;;;-1.30;67.60;;;;;;4992023;28;20202;-62
2022/03/09 03:05:04;;;;;;;15.53;9.60;;;-1.40;64.20;;;;;;4980815;28;20205;-62
2022/03/09 03:07:31;;;;;;;12.23;9.77;;;-1.40;73.40;;;;;;4987192;28;20253;-63
2022/03/09 03:09:58;;;;;;;14.77;8.77;;;-1.30;99.90;;;;;;4986003;28;20201;-62
2022/03/09 03:12:25;;;;;;;14.43;9.80;;;-1.10;99.90;;;;;;4979420;28;20249;-63
2022/03/09 03:14:54;;;;;;;18.83;10.00;;;-1.20;99.90;;;;;;4995399;28;20193;-62
2022/03/09 03:17:23;;;;;;;14.97;9.40;;;-1.20;96.50;;;;;;4995330;28;20194;-63
2022/03/09 03:19:50;;;;;;;15.47;10.07;;;-1.30;99.90;;;;;;4996006;28;20689;-62
2022/03/09 03:22:17;;;;;;;16.97;10.23;;;-1.40;99.90;;;;;;4978923;28;20280;-63
2022/03/09 03:24:44;;;;;;;20.00;11.27;;;-1.50;99.90;;;;;;4985257;28;20281;-62
2022/03/09 03:27:14;;;;;;;17.10;10.30;;;-1.50;99.90;;;;;;4979516;28;20289;-62
2022/03/09 03:29:41;;;;;;;15.77;9.63;;;-1.60;99.90;;;;;;4986001;28;20202;-62
2022/03/09 03:32:10;;;;;;;15.67;10.03;;;-1.50;99.90;;;;;;4984582;28;20668;-62
2022/03/09 03:34:37;;;;;;;16.50;9.87;;;-1.40;99.90;;;;;;4983643;28;20711;-62
2022/03/09 03:37:05;;;;;;;13.10;8.67;;;-1.50;99.90;;;;;;4984459;28;20632;-62
2022/03/09 03:39:34;;;;;;;16.00;9.83;;;-1.50;99.90;;;;;;4995312;28;20206;-62
2022/03/09 03:42:01;;;;;;;14.60;10.23;;;-1.50;99.90;;;;;;4981038;28;20256;-62
2022/03/09 03:44:28;;;;;;;14.87;9.37;;;-1.50;99.90;;;;;;4980165;28;20206;-62
2022/03/09 03:46:57;;;;;;;15.43;10.00;;;-1.50;99.90;;;;;;4979465;28;20217;-63
2022/03/09 03:49:29;;;;;;;16.80;9.73;;;-1.50;99.90;;;;;;4994772;28;20368;-62
2022/03/09 03:51:56;;;;;;;17.27;10.07;;;-1.60;99.90;;;;;;4994234;28;20309;-63
2022/03/09 03:54:25;;;;;;;16.13;9.47;;;-1.50;99.90;;;;;;4971589;28;20217;-63
2022/03/09 03:56:52;;;;;;;14.93;9.37;;;-1.50;99.90;;;;;;4999150;28;20588;-63
2022/03/09 03:59:19;;;;;;;15.67;9.57;;;-1.60;99.90;;;;;;4980123;28;20737;-63
2022/03/09 04:01:46;;;;;;;15.17;11.10;;;-1.60;99.90;;;;;;4980405;28;20201;-63
2022/03/09 04:04:13;;;;;;;14.60;9.77;;;-1.50;99.90;;;;;;4992386;28;20208;-62
2022/03/09 04:06:40;;;;;;;18.13;9.97;;;-1.50;99.90;;;;;;4979724;28;20224;-62
2022/03/09 04:09:07;;;;;;;12.60;9.43;;;-1.50;99.90;;;;;;4978577;28;20248;-62
2022/03/09 04:11:34;;;;;;;15.60;9.63;;;-1.50;99.90;;;;;;4983423;28;20228;-64
2022/03/09 04:14:02;;;;;;;16.60;9.63;;;-1.50;99.90;;;;;;4980150;28;20190;-64
2022/03/09 04:16:29;;;;;;;13.53;9.23;;;-1.40;99.90;;;;;;4978693;28;20202;-63
2022/03/09 04:18:56;;;;;;;13.73;8.77;;;-1.50;99.90;;;;;;4975695;28;20202;-65
2022/03/09 04:21:23;;;;;;;14.40;9.80;;;-1.50;99.90;;;;;;4979642;28;20202;-62
2022/03/09 04:23:50;;;;;;;14.43;8.80;;;-1.60;99.90;;;;;;4980868;28;20308;-62
2022/03/09 04:26:17;;;;;;;13.53;9.00;;;-1.70;99.90;;;;;;4996387;28;20690;-61
2022/03/09 04:28:44;;;;;;;13.33;8.53;;;-1.60;99.90;;;;;;4986468;28;20622;-62
2022/03/09 04:31:12;;;;;;;14.70;8.97;;;-1.50;99.90;;;;;;4981590;28;20190;-62
2022/03/09 04:33:41;;;;;;;14.40;9.13;;;-1.40;99.90;;;;;;4985853;28;20221;-61
2022/03/09 04:36:09;;;;;;;16.60;9.27;;;-1.70;99.90;;;;;;4979982;28;20194;-61
2022/03/09 04:38:36;;;;;;;13.23;9.13;;;-1.50;99.90;;;;;;4995517;28;20350;-61
2022/03/09 04:41:03;;;;;;;22.23;10.00;;;-1.40;99.90;;;;;;4993487;28;20232;-62
2022/03/09 04:43:30;;;;;;;14.37;8.67;;;-1.40;96.00;;;;;;4994839;28;20198;-62
2022/03/09 04:45:58;;;;;;;12.83;8.27;;;-1.50;95.00;;;;;;4994859;28;20249;-63
2022/03/09 04:48:27;;;;;;;14.50;8.53;;;-1.60;97.90;;;;;;4994651;28;20556;-63
2022/03/09 04:50:54;;;;;;;15.67;9.47;;;-1.60;99.90;;;;;;4984272;28;20267;-62
2022/03/09 04:53:21;;;;;;;15.07;9.10;;;-1.60;99.90;;;;;;4996305;28;20308;-62
2022/03/09 04:55:50;;;;;;;11.53;8.30;;;-1.50;99.90;;;;;;4981503;28;20225;-62
2022/03/09 04:58:17;;;;;;;14.93;10.57;;;-1.50;99.90;;;;;;4973421;28;20712;-62
2022/03/09 05:00:46;;;;;;;17.13;10.87;;;-1.50;99.90;;;;;;4998337;28;20249;-62
2022/03/09 05:03:13;;;;;;;16.13;9.33;;;-1.50;99.90;;;;;;5002594;28;20605;-62
2022/03/09 05:05:41;;;;;;;14.87;9.57;;;-1.60;99.90;;;;;;4996294;28;20212;-62
2022/03/09 05:08:09;;;;;;;13.60;9.03;;;-1.70;99.90;;;;;;4984275;28;20594;-62
2022/03/09 05:10:37;;;;;;;13.10;8.87;;;-1.90;99.90;;;;;;4980770;28;20210;-62
2022/03/09 05:13:05;;;;;;;12.63;8.53;;;-1.80;99.90;;;;;;4997183;28;20303;-62
2022/03/09 05:15:32;;;;;;;12.60;8.83;;;-1.70;99.90;;;;;;4988249;28;20305;-62
2022/03/09 05:18:00;;;;;;;16.60;9.30;;;-1.70;99.90;;;;;;4981601;28;20193;-62
2022/03/09 05:20:27;;;;;;;12.70;8.80;;;-1.70;99.90;;;;;;4986619;28;20229;-63
2022/03/09 05:22:54;;;;;;;11.07;7.87;;;-1.80;99.90;;;;;;4995017;28;20284;-61
2022/03/09 05:25:22;;;;;;;11.70;8.53;;;-1.70;99.90;;;;;;4994972;28;20660;-61
2022/03/09 05:27:51;;;;;;;13.07;8.47;;;-1.60;99.90;;;;;;4997634;28;20376;-64
2022/03/09 05:30:18;;;;;;;14.27;8.47;;;-1.60;99.90;;;;;;4996937;28;20210;-63
2022/03/09 05:32:45;;;;;;;13.33;8.87;;;-1.60;99.90;;;;;;4985505;28;20688;-61
2022/03/09 05:35:12;;;;;;;14.27;9.33;;;-1.60;99.90;;;;;;4996947;28;20221;-62
2022/03/09 05:37:42;;;;;;;13.83;8.93;;;-1.60;99.50;;;;;;4979871;28;20661;-62
2022/03/09 05:40:12;;;;;;;13.97;8.63;;;-1.50;76.90;;;;;;4984981;28;20312;-62
2022/03/09 05:42:43;;;;;;;13.00;8.40;;;-1.50;77.40;;;;;;4981276;28;20226;-62
2022/03/09 05:45:21;;;;;;;12.30;7.77;;;-1.40;28.30;;;;;;4995567;28;20480;-62
2022/03/09 05:47:54;;;;;;;16.67;8.87;;;-1.40;39.20;;;;;;4979000;28;20616;-62
2022/03/09 05:50:22;;;;;;;13.40;8.90;;;-1.40;46.90;;;;;;4996734;28;20928;-62
2022/03/09 05:52:49;;;;;;;20.80;9.50;;;-1.40;55.50;;;;;;4996188;28;20678;-62
2022/03/09 05:55:16;;;;;;;15.27;9.07;;;-1.30;41.50;;;;;;4994573;28;20216;-62
2022/03/09 05:57:45;;;;;;;12.67;8.67;;;-1.30;23.40;;;;;;4974929;28;20202;-62
2022/03/09 06:00:14;;;;;;;14.23;8.47;;;-1.20;20.50;;;;;;4981526;28;20289;-62
2022/03/09 06:02:42;;;;;;;13.23;8.73;;;-1.30;18.20;;;;;;4974482;28;20214;-63
2022/03/09 06:05:12;;;;;;;13.47;8.40;;;-1.40;20.80;;;;;;4977032;28;20206;-63
2022/03/09 06:07:40;;;;;;;16.80;8.70;;;-1.40;32.20;;;;;;4977131;28;20558;-62
2022/03/09 06:10:07;;;;;;;12.60;8.27;;;-1.30;22.80;;;;;;4990993;28;20198;-62
2022/03/09 06:12:34;;;;;;;11.57;7.73;;;-1.30;11.90;;;;;;4980712;28;20319;-62
2022/03/09 06:15:01;;;;;;;14.63;7.93;;;-1.30;29.10;;;;;;4995929;28;20965;-62
2022/03/09 06:17:32;;;;;;;23.37;9.67;;;-1.20;7.60;;;;;;4995781;28;20205;-62
2022/03/09 06:19:58;;;;;;;13.93;8.43;;;-0.50;51.70;;;;;;4979165;28;20222;-62
2022/03/09 06:22:28;;;;;;;13.30;8.67;;;1.20;1.00;;;;;;4984876;28;20311;-62
2022/03/09 06:24:57;;;;;;;12.53;8.00;;;2.30;1.00;;;;;;4991386;28;20276;-63
2022/03/09 06:27:23;;;;;;;11.07;8.10;;;3.10;1.00;;;;;;4980937;28;20204;-62
2022/03/09 06:29:57;;;;;;;10.97;7.07;;;4.00;1.00;;;;;;4992510;28;20201;-62
2022/03/09 06:32:24;;;;;;;13.20;7.63;;;4.10;1.00;;;;;;4994302;28;20258;-63
2022/03/09 06:34:52;;;;;;;11.63;7.40;;;4.60;1.00;;;;;;4983411;28;22430;-61
2022/03/09 06:37:19;;;;;;;15.13;8.03;;;5.60;1.00;;;;;;4995630;28;20193;-60
2022/03/09 06:39:45;;;;;;;8.90;6.63;;;6.10;1.00;;;;;;4983679;28;20293;-61
2022/03/09 06:42:15;;;;;;;12.07;7.80;;;6.40;1.00;;;;;;4983173;28;20246;-63
2022/03/09 06:44:42;;;;;;;10.73;7.47;;;7.70;1.00;;;;;;4997873;28;20240;-64
2022/03/09 06:47:11;;;;;;;10.60;7.50;;;7.20;1.00;;;;;;4977914;28;20260;-62
2022/03/09 06:49:38;;;;;;;13.07;7.60;;;8.50;1.00;;;;;;4980559;28;20306;-62
2022/03/09 06:52:06;;;;;;;10.03;7.83;;;8.50;1.00;;;;;;4966692;28;20645;-62
2022/03/09 06:54:33;;;;;;;12.47;8.13;;;9.10;1.00;;;;;;4994890;28;20685;-63
2022/03/09 06:57:03;;;;;;;11.07;7.57;;;9.70;1.00;;;;;;4993618;28;20257;-62
2022/03/09 06:59:30;;;;;;;12.37;7.43;;;10.60;1.00;;;;;;4983492;28;20197;-62
2022/03/09 07:01:57;;;;;;;13.27;7.77;;;11.60;1.00;;;;;;4997598;28;20223;-63
2022/03/09 07:04:24;;;;;;;16.17;7.77;;;9.60;1.00;;;;;;4996818;28;20269;-63
2022/03/09 07:06:53;;;;;;;11.17;7.70;;;9.40;1.00;;;;;;4971645;28;20198;-63
2022/03/09 07:09:20;;;;;;;9.00;7.17;;;9.30;1.00;;;;;;4978663;28;20202;-63
2022/03/09 07:11:47;;;;;;;13.17;7.10;;;9.50;1.00;;;;;;4963925;28;20711;-63
2022/03/09 07:14:14;;;;;;;10.27;8.20;;;10.60;1.00;;;;;;4963778;28;20218;-62
2022/03/09 07:16:41;;;;;;;10.77;7.37;;;10.40;1.00;;;;;;4977488;28;20249;-63
2022/03/09 07:19:08;;;;;;;9.70;7.33;;;10.00;1.00;;;;;;4974618;28;20316;-62
2022/03/09 07:21:35;;;;;;;11.13;7.03;;;12.70;1.00;;;;;;4982605;28;20286;-63
2022/03/09 07:24:04;;;;;;;10.05;7.05;;;15.20;99.90;;;;;;4980788;28;20695;-62
2022/03/09 07:26:33;;;;;;;11.65;7.35;;;15.80;99.90;;;;;;4979285;28;20209;-62
2022/03/09 07:29:00;;;;;;;12.77;8.00;;;16.10;99.90;;;;;;4980992;28;20205;-63
2022/03/09 07:31:27;;;;;;;10.15;7.63;;;16.80;99.90;;;;;;4966179;28;20324;-62
2022/03/09 07:33:56;;;;;;;15.00;7.30;;;14.30;99.90;;;;;;4980825;28;20607;-63
2022/03/09 07:36:25;;;;;;;11.50;7.28;;;11.90;99.90;;;;;;4982070;28;20197;-64
2022/03/09 07:38:52;;;;;;;10.00;7.67;;;13.70;99.90;;;;;;4986705;28;20309;-62
2022/03/09 07:41:39;;;;;;;11.27;7.17;;;12.70;99.90;;;;;;4978265;28;20236;-63
2022/03/09 07:44:06;;;;;;;12.52;7.47;;;14.20;99.90;;;;;;4985775;28;20202;-63
2022/03/09 07:46:33;;;;;;;9.90;7.10;;;14.20;99.90;;;;;;4991729;28;20728;-63
2022/03/09 07:49:01;;;;;;;8.88;6.97;;;15.40;99.90;;;;;;4977433;28;20189;-63
2022/03/09 07:51:28;;;;;;;9.70;7.47;;;17.40;99.90;;;;;;4978515;28;20234;-63
2022/03/09 07:53:54;;;;;;;9.20;7.13;;;17.70;99.90;;;;;;4980818;28;20740;-63
2022/03/09 07:56:21;;;;;;;8.43;6.55;;;15.60;99.90;;;;;;4977312;28;20202;-63
2022/03/09 07:58:50;;;;;;;9.18;6.55;;;12.30;99.90;;;;;;4978943;28;20233;-64
2022/03/09 08:01:20;;;;;;;7.65;5.82;;;9.80;99.90;;;;;;4979202;28;20654;-63
2022/03/09 08:03:48;;;;;;;8.95;6.82;;;8.80;99.90;;;;;;4977547;28;20210;-62
2022/03/09 08:06:15;;;;;;;8.23;6.18;;;7.80;99.90;;;;;;4979193;28;20233;-62
2022/03/09 08:08:42;;;;;;;9.13;6.80;;;7.10;99.90;;;;;;4979087;28;20733;-63
2022/03/09 08:11:09;;;;;;;9.90;7.40;;;6.60;99.90;;;;;;4992305;28;20201;-62
2022/03/09 08:13:36;;;;;;;9.20;6.80;;;6.10;1.00;;;;;;4975988;28;20250;-62
2022/03/09 08:16:10;;;;;;;11.43;6.97;;;5.90;1.00;;;;;;4982405;28;20189;-62
2022/03/09 08:18:38;;;;;;;10.40;6.83;;;5.80;1.00;;;;;;4971158;28;20205;-63
2022/03/09 08:21:10;;;;;;;10.27;6.93;;;5.80;1.00;;;;;;4981236;28;20412;-61
2022/03/09 08:23:37;;;;;;;9.20;7.07;;;5.80;1.00;;;;;;4983074;28;20826;-61
2022/03/09 08:26:04;;;;;;;16.03;7.13;;;5.80;1.00;;;;;;4975843;28;20216;-63
2022/03/09 08:28:35;;;;;;;10.37;6.93;;;5.80;1.00;;;;;;4980950;28;20232;-62
2022/03/09 08:31:02;;;;;;;10.47;6.97;;;5.90;1.00;;;;;;4978373;28;20208;-61
2022/03/09 08:33:29;;;;;;;13.47;7.07;;;5.80;1.00;;;;;;4977854;28;20213;-61
2022/03/09 08:35:55;;;;;;;9.97;7.00;;;5.90;1.00;;;;;;4981562;28;20189;-62
2022/03/09 08:38:22;;;;;;;11.10;6.70;;;6.10;1.00;;;;;;4983267;28;20204;-60
2022/03/09 08:40:49;;;;;;;8.53;6.00;;;6.10;1.00;;;;;;4983612;28;20290;-61
2022/03/09 08:43:17;;;;;;;10.23;6.63;;;6.20;1.00;;;;;;4985657;28;20201;-61
2022/03/09 08:45:45;;;;;;;9.60;6.33;;;6.20;1.00;;;;;;4994644;28;20198;-60
2022/03/09 08:48:14;;;;;;;12.43;6.37;;;6.40;1.00;;;;;;4979662;28;20205;-60
2022/03/09 08:50:42;;;;;;;12.00;6.27;;;6.70;1.00;;;;;;4985303;28;20226;-61
2022/03/09 08:53:09;;;;;;;11.20;5.70;;;6.80;1.00;;;;;;4979340;28;20224;-61
2022/03/09 08:55:36;;;;;;;10.37;5.87;;;7.00;1.00;;;;;;4979918;28;20272;-60
2022/03/09 08:58:03;;;;;;;8.27;5.70;;;7.10;1.00;;;;;;4979494;28;20324;-60
2022/03/09 09:00:30;;;;;;;8.60;6.00;;;7.30;1.00;;;;;;4983739;28;20193;-61
2022/03/09 09:02:58;;;;;;;8.27;6.20;;;7.40;1.00;;;;;;4976686;28;20206;-63
2022/03/09 09:05:26;;;;;;;7.43;5.17;;;7.50;1.00;;;;;;4994188;28;20213;-62
2022/03/09 09:07:54;;;;;;;8.13;5.80;;;10.70;1.00;;;;;;4963472;28;20871;-63
2022/03/09 09:10:28;;;;;;;10.60;5.50;;;15.60;99.90;;;;;;4990011;28;20201;-63
2022/03/09 09:12:57;;;;;;;8.43;5.17;;;19.60;99.90;;;;;;4992217;28;20311;-63
2022/03/09 09:15:26;;;;;;;8.98;5.40;;;21.20;99.90;;;;;;4985786;28;20202;-63
2022/03/09 09:18:01;;;;;;;7.65;5.75;;;22.90;99.90;;;;;;4982714;28;20210;-63
2022/03/09 09:20:47;;;;;;;7.13;5.40;;;22.50;99.90;;;;;;4981689;28;20228;-64
2022/03/09 09:23:16;;;;;;;9.95;5.20;;;23.20;99.90;;;;;;4981440;28;21252;-63
2022/03/09 09:25:46;;;;;;;8.68;5.88;;;24.20;99.90;;;;;;4980339;28;20352;-63
2022/03/09 09:28:14;;;;;;;7.35;5.15;;;23.00;99.90;;;;;;4980675;28;20340;-63
2022/03/09 09:30:41;;;;;;;8.10;5.70;;;23.40;99.90;;;;;;4992906;28;20645;-63
2022/03/09 09:33:08;;;;;;;7.50;6.15;;;20.70;99.90;;;;;;4975108;28;20249;-63
2022/03/09 09:35:35;;;;;;;6.63;5.15;;;21.10;99.90;;;;;;4978071;28;20197;-63
2022/03/09 09:38:06;;;;;;;7.30;5.30;;;21.90;99.90;;;;;;4977648;28;20198;-64
2022/03/09 09:40:41;;;;;;;8.20;5.25;;;21.00;99.90;;;;;;4977428;28;20238;-63
2022/03/09 09:43:10;;;;;;;5.90;5.05;;;22.40;99.90;;;;;;4976563;28;20633;-63
2022/03/09 09:45:41;;;;;;;6.63;4.90;;;23.00;99.90;;;;;;4976992;28;20197;-63
2022/03/09 09:48:09;;;;;;;8.65;5.18;;;21.40;99.90;;;;;;4977448;28;20194;-63
2022/03/09 09:50:37;;;;;;;7.10;4.60;;;21.40;99.90;;;;;;4980470;28;21549;-63
2022/03/09 09:53:08;;;;;;;9.50;5.95;;;21.60;99.90;;;;;;4993353;28;20233;-63
2022/03/09 09:55:40;;;;;;;5.47;4.93;;;21.60;99.90;;;;;;4991439;28;20292;-64
2022/03/09 09:58:07;;;;;;;6.88;5.40;;;23.20;99.90;;;;;;4990003;28;20225;-63
2022/03/09 10:00:35;;;;;;;6.85;5.13;;;23.60;99.90;;;;;;4994804;28;20193;-63
2022/03/09 10:03:04;;;;;;;5.85;4.95;;;23.70;99.90;;;;;;4977631;28;20202;-63
2022/03/09 10:05:32;;;;;;;7.13;5.05;;;22.80;99.90;;;;;;4977973;28;20649;-63
2022/03/09 10:08:07;;;;;;;6.63;4.97;;;22.50;99.90;;;;;;4993710;28;20331;-63
2022/03/09 10:10:35;;;;;;;6.63;5.20;;;21.20;99.90;;;;;;4995053;28;20198;-63
2022/03/09 10:13:26;;;;;;;7.88;5.57;;;21.70;99.90;;;;;;4979926;28;20198;-62
2022/03/09 10:16:15;;;;;;;6.15;4.80;;;24.40;99.90;;;;;;4992397;28;20280;-62
2022/03/09 10:18:49;;;;;;;7.28;5.28;;;22.90;99.90;;;;;;4993263;28;20194;-62
2022/03/09 10:21:23;;;;;;;6.53;5.20;;;21.70;99.90;;;;;;4996223;28;20666;-63
2022/03/09 10:24:02;;;;;;;6.63;5.43;;;22.70;99.90;;;;;;5010607;28;20216;-62
2022/03/09 10:26:45;;;;;;;9.00;5.20;;;24.80;99.90;;;;;;4978985;28;20256;-62
2022/03/09 10:29:15;;;;;;;6.90;5.22;;;22.10;99.90;;;;;;4979530;28;20826;-62
2022/03/09 10:31:45;;;;;;;7.15;5.32;;;26.90;99.90;;;;;;4982310;28;20297;-62
2022/03/09 10:34:23;;;;;;;7.95;4.97;;;25.30;99.90;;;;;;4992894;28;20225;-63
2022/03/09 10:37:06;;;;;;;11.38;5.60;;;24.90;99.90;;;;;;4978434;28;20647;-62
2022/03/09 10:39:36;;;;;;;7.35;5.20;;;26.80;99.90;;;;;;4979750;28;20261;-62
2022/03/09 10:42:23;;;;;;;6.50;5.63;;;27.50;99.90;;;;;;4978630;28;20250;-62
2022/03/09 10:44:51;;;;;;;6.00;5.18;;;25.80;99.90;;;;;;4978612;28;20236;-62
2022/03/09 10:47:33;;;;;;;9.38;5.60;;;25.90;99.90;;;;;;4978691;28;20205;-63
2022/03/09 10:50:22;;;;;;;6.47;5.32;;;27.00;99.90;;;;;;4968554;28;20241;-62
2022/03/09 10:53:01;;;;;;;8.95;5.13;;;23.70;99.90;;;;;;4986477;28;20264;-62
2022/03/09 10:55:33;;;;;;;52.22;8.10;;;25.80;99.90;;;;;;4980969;28;20232;-62
2022/03/09 10:58:33;;;;;;;6.45;5.32;;;24.70;99.90;;;;;;4980772;28;20200;-63
2022/03/09 11:01:00;;;;;;;6.82;5.35;;;25.10;99.90;;;;;;4984271;28;20252;-62
2022/03/09 11:03:33;;;;;;;6.97;5.22;;;23.50;99.90;;;;;;4982369;28;20296;-62
2022/03/09 11:06:02;;;;;;;7.53;5.60;;;23.70;99.90;;;;;;4976752;28;20190;-63
2022/03/09 11:08:31;;;;;;;6.65;5.78;;;24.60;99.90;;;;;;4976994;28;20210;-62
2022/03/09 11:11:02;;;;;;;7.97;5.35;;;24.30;99.90;;;;;;4978553;28;20265;-63
2022/03/09 11:13:39;;;;;;;6.18;4.80;;;24.50;99.90;;;;;;4992594;28;20315;-62
2022/03/09 11:16:09;;;;;;;8.27;5.20;;;24.40;99.90;;;;;;4982925;28;20206;-63
2022/03/09 11:18:36;;;;;;;8.13;5.20;;;23.90;99.90;;;;;;4981613;28;20202;-63
2022/03/09 11:21:09;;;;;;;8.43;5.30;;;23.80;99.90;;;;;;4995895;28;20569;-62
2022/03/09 11:23:41;;;;;;;11.23;5.55;;;23.30;99.90;;;;;;4980764;28;20708;-62
2022/03/09 11:26:16;;;;;;;11.50;6.05;;;22.30;99.90;;;;;;4979433;28;20281;-63
2022/03/09 11:28:44;;;;;;;8.60;5.70;;;21.70;99.90;;;;;;4969626;28;20636;-62
2022/03/09 11:31:21;;;;;;;6.80;5.50;;;22.20;99.90;;;;;;4976869;28;20201;-62
2022/03/09 11:33:49;;;;;;;8.02;5.47;;;22.50;99.90;;;;;;4973014;28;20844;-62
2022/03/09 11:36:22;;;;;;;7.22;5.68;;;21.70;99.90;;;;;;4991760;28;20248;-63
2022/03/09 11:38:53;;;;;;;8.70;6.15;;;21.00;99.90;;;;;;4997158;28;20204;-62
2022/03/09 11:41:24;;;;;;;7.95;5.60;;;21.50;99.90;;;;;;4993383;28;20773;-63
2022/03/09 11:43:53;;;;;;;5.80;5.18;;;22.00;99.90;;;;;;4978411;28;20201;-63
2022/03/09 11:46:21;;;;;;;6.20;5.38;;;21.60;99.90;;;;;;4965886;28;20210;-63
2022/03/09 11:48:59;;;;;;;7.63;5.60;;;21.70;99.90;;;;;;4990998;28;20201;-63
2022/03/09 11:51:30;;;;;;;7.38;5.60;;;20.50;99.90;;;;;;4975391;28;20224;-62
2022/03/09 11:53:59;;;;;;;7.22;5.40;;;19.90;99.90;;;;;;4974727;28;20213;-63
2022/03/09 11:56:26;;;;;;;11.93;5.93;;;20.00;99.90;;;;;;4992441;28;20280;-62
2022/03/09 11:59:27;;;;;;;8.02;5.28;;;19.70;99.90;;;;;;4981621;28;20205;-62
2022/03/09 12:02:09;;;;;;;8.38;5.97;;;19.90;99.90;;;;;;4978992;28;20236;-63
2022/03/09 12:04:40;;;;;;;11.50;6.28;;;19.10;99.90;;;;;;4980009;28;20247;-62
2022/03/09 12:07:27;;;;;;;8.57;5.20;;;19.80;99.90;;;;;;4981806;28;20194;-63
2022/03/09 12:10:06;;;;;;;5.88;5.18;;;20.50;99.90;;;;;;4976091;28;20228;-63
2022/03/09 12:12:35;;;;;;;7.15;5.63;;;20.40;99.90;;;;;;4991051;28;20193;-63
2022/03/09 12:15:05;;;;;;;7.13;5.40;;;19.50;99.90;;;;;;4981439;28;20303;-62
2022/03/09 12:17:38;;;;;;;6.70;5.15;;;20.90;99.90;;;;;;4988396;28;20608;-63
2022/03/09 12:20:20;;;;;;;6.95;5.53;;;21.60;99.90;;;;;;4975517;28;20194;-62
2022/03/09 12:22:56;;;;;;;8.00;5.15;;;21.90;99.90;;;;;;4981361;28;20296;-63
2022/03/09 12:25:40;;;;;;;9.52;5.13;;;21.50;99.90;;;;;;4976221;28;20221;-63
2022/03/09 12:28:25;;;;;;;9.45;6.40;;;20.60;99.90;;;;;;4976662;28;20201;-62
2022/03/09 12:31:19;;;;;;;6.28;5.63;;;20.70;99.90;;;;;;4989537;28;20189;-63
2022/03/09 12:33:53;;;;;;;11.73;5.55;;;20.20;99.90;;;;;;4989850;28;20240;-62
2022/03/09 12:36:21;;;;;;;6.85;5.68;;;19.40;99.90;;;;;;4975378;28;20198;-62
2022/03/09 12:39:05;;;;;;;9.43;5.53;;;18.80;99.90;;;;;;4992403;28;20278;-63
2022/03/09 12:41:44;;;;;;;11.57;5.40;;;19.40;99.90;;;;;;4974222;28;20773;-62
2022/03/09 12:44:16;;;;;;;5.57;4.90;;;19.40;99.90;;;;;;4979122;28;20249;-62
2022/03/09 12:46:52;;;;;;;8.25;5.65;;;19.70;99.90;;;;;;4977971;28;20206;-62
2022/03/09 12:49:38;;;;;;;7.10;5.65;;;19.20;99.90;;;;;;4977193;28;20284;-62
2022/03/09 12:52:07;;;;;;;6.18;5.57;;;18.30;99.90;;;;;;4994146;28;20276;-62
2022/03/09 12:54:36;;;;;;;8.68;5.13;;;17.90;99.90;;;;;;4970588;28;20214;-62
2022/03/09 12:57:15;;;;;;;9.07;6.60;;;17.60;99.90;;;;;;4973706;28;20233;-62
2022/03/09 13:00:13;;;;;;;8.25;5.65;;;17.60;99.90;;;;;;4977808;28;20669;-62